< < Back
Terminal Aerodrome Forecast


Current Version              Previous Versions:   1  2  3  4  5  6  7  8  9  

Terminal Aerodrome Forecast

389
FTUS42 KFFC 281126
TAFPDK
TAF
KPDK 281126Z 2812/0112 04005KT P6SM BKN100
     FM281500 08011KT P6SM SCT035 BKN090
     FM010300 08006KT P6SM SCT015 BKN035
     FM010600 08005KT P6SM -RA BKN015
     FM011000 08003KT 4SM -RA OVC005=

Latest METAR

101
SAUS70 KWBC 010000 RRQ
MTRPDK
METAR KPDK 282353Z VRB04KT 10SM CLR 08/M03 A3050 RMK AO2 SLP338
T00831028 10122 20083 53007


USA.gov is the U.S. government's official web portal to all federal, state and local government web resources and services.